createdAt,value
2023-04-08T00:02:05.173Z,87.79
2023-04-08T00:04:34.748Z,87.79
2023-04-08T00:07:06.524Z,87.60
2023-04-08T00:09:36.218Z,87.28
2023-04-08T00:12:06.300Z,88.09
2023-04-08T00:14:36.218Z,88.61
2023-04-08T00:17:06.235Z,88.55
2023-04-08T00:19:36.267Z,88.39
2023-04-08T00:22:07.459Z,87.71
2023-04-08T00:24:37.144Z,87.45
2023-04-08T00:27:07.335Z,88.17
2023-04-08T00:29:37.690Z,88.56
2023-04-08T00:32:07.725Z,88.18
2023-04-08T00:34:37.738Z,87.14
2023-04-08T00:37:07.465Z,87.38
2023-04-08T00:39:39.272Z,87.65
2023-04-08T00:42:10.690Z,87.84
2023-04-08T00:44:40.592Z,87.96
2023-04-08T00:47:14.198Z,88.25
2023-04-08T00:49:45.693Z,88.10
2023-04-08T00:52:15.180Z,87.90
2023-04-08T00:54:45.811Z,88.21
2023-04-08T00:57:15.412Z,88.62
2023-04-08T00:59:45.535Z,88.53
2023-04-08T01:02:33.207Z,88.78
2023-04-08T01:05:26.776Z,88.90
2023-04-08T01:07:58.271Z,88.99
2023-04-08T01:10:31.333Z,88.81
2023-04-08T01:13:06.310Z,89.37
2023-04-08T01:15:39.668Z,88.78
2023-04-08T01:18:13.879Z,88.64
2023-04-08T01:20:44.822Z,88.30
2023-04-08T01:23:25.813Z,88.43
2023-04-08T01:25:57.666Z,88.54
2023-04-08T01:28:32.052Z,88.06
2023-04-08T01:31:04.080Z,88.04
2023-04-08T01:33:35.679Z,88.68
2023-04-08T01:36:07.223Z,88.63
2023-04-08T01:38:40.554Z,88.79
2023-04-08T01:41:12.045Z,89.05
2023-04-08T01:43:44.406Z,88.67
2023-04-08T01:46:16.001Z,88.61
2023-04-08T01:48:46.654Z,89.54
2023-04-08T01:51:18.308Z,89.41
2023-04-08T01:53:48.326Z,89.10
2023-04-08T01:56:23.394Z,89.29
2023-04-08T01:58:57.775Z,89.62
2023-04-08T02:01:30.158Z,89.38
2023-04-08T02:04:01.551Z,89.55
2023-04-08T02:06:33.080Z,89.94
2023-04-08T02:09:02.503Z,89.90
2023-04-08T02:11:32.197Z,89.81
2023-04-08T02:14:02.022Z,89.80
2023-04-08T02:16:56.826Z,90.19
2023-04-08T02:19:38.537Z,90.03
2023-04-08T02:22:27.489Z,89.97
2023-04-08T02:25:00.537Z,89.65
2023-04-08T02:27:34.657Z,90.04
2023-04-08T02:30:09.578Z,89.81
2023-04-08T02:32:39.884Z,89.61
2023-04-08T02:35:12.328Z,89.48
2023-04-08T02:37:42.341Z,89.36
2023-04-08T02:40:25.458Z,89.81
2023-04-08T02:42:55.840Z,90.15
2023-04-08T02:45:41.733Z,90.03
2023-04-08T02:48:11.944Z,89.55
2023-04-08T02:50:43.449Z,89.92
2023-04-08T02:53:12.925Z,89.70
2023-04-08T02:55:43.443Z,88.88
2023-04-08T02:58:12.889Z,88.85
2023-04-08T03:00:42.106Z,90.21
2023-04-08T03:03:15.027Z,91.12
2023-04-08T03:05:44.622Z,89.64
2023-04-08T03:08:14.022Z,89.20
2023-04-08T03:10:43.593Z,89.20
2023-04-08T03:13:13.912Z,89.41
2023-04-08T03:15:45.016Z,89.20
2023-04-08T03:18:14.689Z,89.05
2023-04-08T03:20:44.215Z,89.12
2023-04-08T03:23:13.673Z,88.54
2023-04-08T03:25:44.655Z,88.62
2023-04-08T03:28:14.414Z,88.74
2023-04-08T03:30:44.628Z,88.63
2023-04-08T03:33:14.837Z,88.53
2023-04-08T03:35:45.584Z,88.33
2023-04-08T03:38:15.320Z,87.98
2023-04-08T03:40:45.304Z,87.98
2023-04-08T03:43:16.526Z,87.97
2023-04-08T03:45:46.405Z,88.01
2023-04-08T03:48:16.209Z,88.03
2023-04-08T03:50:46.315Z,87.86
2023-04-08T03:53:16.484Z,88.17
2023-04-08T03:55:53.379Z,88.22
2023-04-08T03:58:23.694Z,88.24
2023-04-08T04:00:52.761Z,87.94
2023-04-08T04:03:23.404Z,87.87
2023-04-08T04:05:53.455Z,87.77
2023-04-08T04:08:23.040Z,87.72
2023-04-08T04:10:52.544Z,87.82
2023-04-08T04:13:22.362Z,87.78
2023-04-08T04:15:52.486Z,88.34
2023-04-08T04:18:22.980Z,88.00
2023-04-08T04:20:52.686Z,88.25
2023-04-08T04:23:24.934Z,88.99
2023-04-08T04:25:56.669Z,89.23
2023-04-08T04:28:26.041Z,89.27
2023-04-08T04:30:56.765Z,88.88
2023-04-08T04:33:27.725Z,88.98
2023-04-08T04:35:57.640Z,89.30
2023-04-08T04:38:27.642Z,89.46
2023-04-08T04:40:58.361Z,89.48
2023-04-08T04:43:28.967Z,89.03
2023-04-08T04:45:58.347Z,89.51
2023-04-08T04:48:28.395Z,88.80
2023-04-08T04:51:03.612Z,88.82
2023-04-08T04:53:35.952Z,89.29
2023-04-08T04:56:06.268Z,88.90
2023-04-08T04:58:35.791Z,89.05
2023-04-08T05:01:07.258Z,88.35
2023-04-08T05:03:37.102Z,88.24
2023-04-08T05:06:07.526Z,88.78
2023-04-08T05:08:37.919Z,89.22
2023-04-08T05:11:11.335Z,88.57
2023-04-08T05:13:42.103Z,88.35
2023-04-08T05:16:14.179Z,88.71
2023-04-08T05:18:43.882Z,88.95
2023-04-08T05:21:14.558Z,88.58
2023-04-08T05:23:43.999Z,88.85
2023-04-08T05:26:15.900Z,88.74
2023-04-08T05:28:46.624Z,89.07
2023-04-08T05:31:20.236Z,89.24
2023-04-08T05:33:50.092Z,89.37
2023-04-08T05:36:19.584Z,89.50
2023-04-08T05:38:50.429Z,89.81
2023-04-08T05:41:20.136Z,89.99
2023-04-08T05:43:52.610Z,90.10
2023-04-08T05:46:23.004Z,90.29
2023-04-08T05:48:53.139Z,90.07
2023-04-08T05:51:23.410Z,90.02
2023-04-08T05:53:52.743Z,89.60
2023-04-08T05:56:23.165Z,89.61
2023-04-08T05:58:53.689Z,89.73
2023-04-08T06:01:25.979Z,89.17
2023-04-08T06:03:59.145Z,88.88
2023-04-08T06:06:30.728Z,88.65
2023-04-08T06:09:00.717Z,88.35
2023-04-08T06:11:31.845Z,88.69
2023-04-08T06:14:01.800Z,89.02
2023-04-08T06:16:31.637Z,88.40
2023-04-08T06:19:01.137Z,88.26
2023-04-08T06:21:34.117Z,88.48
2023-04-08T06:24:03.235Z,88.37
2023-04-08T06:26:33.269Z,88.06
2023-04-08T06:29:03.657Z,87.99
2023-04-08T06:31:37.862Z,88.24
2023-04-08T06:34:07.826Z,88.69
2023-04-08T06:36:38.223Z,89.05
2023-04-08T06:39:09.390Z,88.84
2023-04-08T06:41:42.510Z,88.85
2023-04-08T06:44:24.458Z,88.88
2023-04-08T06:46:54.345Z,88.86
2023-04-08T06:49:25.058Z,88.99
2023-04-08T06:51:54.643Z,88.73
2023-04-08T06:54:23.854Z,88.52
2023-04-08T06:56:53.407Z,88.51
2023-04-08T06:59:23.602Z,88.41
2023-04-08T07:01:54.359Z,88.20
2023-04-08T07:04:25.129Z,87.89
2023-04-08T07:06:58.175Z,87.61
2023-04-08T07:09:28.277Z,87.51
2023-04-08T07:12:00.592Z,87.26
2023-04-08T07:14:30.341Z,86.83
2023-04-08T07:16:59.718Z,86.37
2023-04-08T07:19:30.387Z,85.65
2023-04-08T07:22:00.434Z,85.65
2023-04-08T07:24:29.787Z,85.42
2023-04-08T07:26:59.252Z,85.19
2023-04-08T07:29:29.424Z,85.00
2023-04-08T07:32:02.877Z,85.16
2023-04-08T07:34:32.425Z,84.60
2023-04-08T07:37:02.010Z,83.87
2023-04-08T07:39:31.547Z,83.97
2023-04-08T07:42:01.366Z,83.48
2023-04-08T07:44:31.203Z,83.28
2023-04-08T07:47:01.494Z,83.24
2023-04-08T07:49:32.011Z,82.63
2023-04-08T07:52:02.335Z,82.62
2023-04-08T07:54:34.991Z,81.75
2023-04-08T07:57:05.274Z,82.06
2023-04-08T07:59:34.680Z,81.75
2023-04-08T08:02:05.665Z,81.57
2023-04-08T08:04:36.966Z,80.20
2023-04-08T08:07:06.880Z,80.81
2023-04-08T08:09:36.425Z,80.47
2023-04-08T08:12:06.319Z,78.85
2023-04-08T08:14:37.151Z,78.79
2023-04-08T08:17:08.797Z,77.94
2023-04-08T08:19:38.275Z,76.68
2023-04-08T08:22:12.508Z,76.04
2023-04-08T08:24:43.153Z,74.50
2023-04-08T08:27:12.506Z,73.90
2023-04-08T08:29:41.993Z,72.52
2023-04-08T08:32:13.122Z,71.58
2023-04-08T08:34:43.037Z,70.92
2023-04-08T08:37:12.505Z,70.98
2023-04-08T08:39:43.394Z,71.14
2023-04-08T08:42:22.402Z,70.05
2023-04-08T08:44:52.095Z,70.61
2023-04-08T08:47:21.480Z,70.28
2023-04-08T08:49:51.537Z,69.02
2023-04-08T08:52:22.123Z,69.36
2023-04-08T08:55:00.653Z,68.59
2023-04-08T08:57:30.275Z,68.29
2023-04-08T09:00:00.755Z,68.45
2023-04-08T09:02:32.810Z,67.95
2023-04-08T09:05:04.936Z,67.82
2023-04-08T09:07:38.080Z,66.74
2023-04-08T09:10:11.283Z,66.13
2023-04-08T09:12:56.883Z,66.48
2023-04-08T09:15:27.851Z,66.12
2023-04-08T09:17:58.945Z,66.76
2023-04-08T09:20:28.793Z,66.34
2023-04-08T09:23:03.183Z,64.30
2023-04-08T09:25:36.371Z,64.75
2023-04-08T09:28:06.984Z,64.60
2023-04-08T09:30:37.418Z,62.06
2023-04-08T09:33:07.874Z,62.48
2023-04-08T09:35:37.290Z,63.00
2023-04-08T09:38:07.544Z,62.99
2023-04-08T09:40:38.334Z,62.21
2023-04-08T09:43:10.051Z,59.58
2023-04-08T09:45:43.321Z,59.30
2023-04-08T09:48:18.873Z,59.28
2023-04-08T09:50:52.375Z,60.14
2023-04-08T09:53:39.464Z,61.88
2023-04-08T09:56:12.923Z,60.42
2023-04-08T09:59:01.566Z,58.72
2023-04-08T10:01:44.735Z,59.77
2023-04-08T10:04:19.815Z,59.05
2023-04-08T10:06:56.058Z,58.75
2023-04-08T10:09:27.737Z,56.00
2023-04-08T10:11:57.040Z,56.04
2023-04-08T10:14:29.191Z,53.92
2023-04-08T10:17:46.975Z,54.36
2023-04-08T10:20:37.631Z,54.32
2023-04-08T10:23:14.134Z,55.66
2023-04-08T10:25:47.130Z,55.02
2023-04-08T10:28:19.982Z,54.64
2023-04-08T10:30:54.447Z,52.85
2023-04-08T10:33:40.632Z,53.65
2023-04-08T10:36:12.533Z,53.34
2023-04-08T10:38:43.285Z,53.40
2023-04-08T10:41:14.676Z,54.13
2023-04-08T10:43:47.993Z,51.84
2023-04-08T10:46:18.733Z,53.28
2023-04-08T10:49:04.214Z,54.54
2023-04-08T10:51:35.306Z,54.56
2023-04-08T10:54:15.065Z,54.41
2023-04-08T10:56:46.969Z,53.58
2023-04-08T10:59:23.445Z,52.68
2023-04-08T11:01:52.929Z,52.68
2023-04-08T11:04:24.351Z,52.72
2023-04-08T11:06:55.218Z,53.20
2023-04-08T11:09:25.170Z,52.27
2023-04-08T11:11:56.065Z,51.74
2023-04-08T11:14:33.559Z,52.01
2023-04-08T11:17:06.521Z,52.44
2023-04-08T11:19:37.813Z,53.57
2023-04-08T11:22:21.736Z,54.74
2023-04-08T11:24:52.788Z,54.46
2023-04-08T11:27:26.322Z,53.28
2023-04-08T11:29:59.654Z,54.11
2023-04-08T11:32:34.188Z,55.31
2023-04-08T11:35:08.251Z,55.09
2023-04-08T11:37:42.451Z,54.71
2023-04-08T11:40:13.650Z,54.30
2023-04-08T11:42:45.046Z,55.21
2023-04-08T11:45:17.892Z,54.73
2023-04-08T11:47:49.193Z,54.96
2023-04-08T11:50:26.112Z,55.64
2023-04-08T11:53:22.828Z,55.54
2023-04-08T11:55:52.828Z,55.09
2023-04-08T11:58:23.324Z,54.89
2023-04-08T12:00:52.619Z,54.78
2023-04-08T12:03:23.223Z,53.54
2023-04-08T12:05:52.547Z,52.94
2023-04-08T12:08:23.992Z,52.27
2023-04-08T12:10:54.548Z,51.38
2023-04-08T12:13:23.810Z,49.95
2023-04-08T12:15:53.657Z,47.90
2023-04-08T12:18:23.744Z,47.34
2023-04-08T12:20:55.291Z,46.35
2023-04-08T12:23:25.664Z,46.38
2023-04-08T12:25:54.806Z,45.37
2023-04-08T12:28:24.349Z,45.63
2023-04-08T12:30:59.375Z,45.35
2023-04-08T12:33:29.325Z,45.27
2023-04-08T12:36:00.981Z,46.89
2023-04-08T12:38:30.574Z,47.93
2023-04-08T12:41:00.272Z,46.09
2023-04-08T12:43:31.149Z,45.49
2023-04-08T12:46:00.798Z,44.25
2023-04-08T12:48:30.534Z,45.36
2023-04-08T12:51:00.328Z,46.30
2023-04-08T12:53:30.247Z,47.03
2023-04-08T12:56:00.684Z,46.35
2023-04-08T12:58:30.173Z,45.22
2023-04-08T13:00:59.987Z,45.97
2023-04-08T13:03:32.334Z,47.68
2023-04-08T13:06:01.896Z,46.97
2023-04-08T13:08:31.728Z,48.62
2023-04-08T13:11:01.735Z,46.85
2023-04-08T13:13:31.842Z,47.90
2023-04-08T13:16:03.759Z,46.54
2023-04-08T13:18:34.224Z,47.24
2023-04-08T13:21:05.062Z,48.10
2023-04-08T13:23:35.524Z,48.59
2023-04-08T13:26:07.181Z,48.86
2023-04-08T13:28:53.599Z,48.58
2023-04-08T13:31:27.127Z,48.68
2023-04-08T13:33:58.473Z,46.66
2023-04-08T13:36:29.331Z,46.30
2023-04-08T13:38:59.687Z,46.96
2023-04-08T13:41:30.009Z,47.54
2023-04-08T13:43:59.742Z,48.73
2023-04-08T13:46:29.581Z,48.72
2023-04-08T13:48:59.261Z,48.28
2023-04-08T13:51:28.636Z,48.28
2023-04-08T13:53:58.803Z,47.54
2023-04-08T13:56:28.434Z,47.38
2023-04-08T13:58:58.193Z,46.77
2023-04-08T14:01:27.715Z,46.30
2023-04-08T14:03:58.098Z,47.16
2023-04-08T14:06:28.359Z,46.06
2023-04-08T14:08:59.195Z,44.56
2023-04-08T14:11:28.323Z,45.12
2023-04-08T14:13:58.284Z,45.35
2023-04-08T14:16:31.311Z,45.72
2023-04-08T14:19:01.158Z,45.35
2023-04-08T14:21:32.341Z,45.86
2023-04-08T14:24:07.009Z,46.63
2023-04-08T14:26:37.928Z,47.00
2023-04-08T14:29:07.415Z,46.70
2023-04-08T14:31:36.963Z,46.42
2023-04-08T14:34:07.217Z,46.69
2023-04-08T14:36:37.272Z,47.28
2023-04-08T14:39:06.888Z,46.57
2023-04-08T14:41:36.875Z,48.31
2023-04-08T14:44:06.186Z,48.37
2023-04-08T14:46:36.260Z,49.00
2023-04-08T14:49:07.597Z,48.50
2023-04-08T14:51:38.426Z,48.54
2023-04-08T14:54:11.125Z,49.29
2023-04-08T14:56:40.739Z,48.83
2023-04-08T14:59:10.897Z,49.27
2023-04-08T15:01:41.835Z,49.65
2023-04-08T15:04:11.582Z,50.73
2023-04-08T15:06:41.496Z,49.14
2023-04-08T15:09:12.175Z,49.49
2023-04-08T15:11:42.326Z,50.21
2023-04-08T15:14:12.599Z,50.34
2023-04-08T15:16:42.246Z,50.37
2023-04-08T15:19:12.281Z,50.72
2023-04-08T15:21:42.217Z,50.42
2023-04-08T15:24:11.995Z,50.95
2023-04-08T15:26:43.116Z,51.49
2023-04-08T15:29:12.888Z,50.83
2023-04-08T15:31:42.524Z,51.05
2023-04-08T15:34:12.786Z,51.14
2023-04-08T15:36:42.347Z,50.95
2023-04-08T15:39:12.723Z,51.12
2023-04-08T15:41:42.614Z,51.13
2023-04-08T15:44:12.202Z,50.65
2023-04-08T15:46:42.246Z,50.32
2023-04-08T15:49:13.496Z,50.87
2023-04-08T15:51:45.196Z,51.36
2023-04-08T15:54:14.447Z,51.17
2023-04-08T15:56:47.106Z,51.65
2023-04-08T15:59:17.248Z,51.85
2023-04-08T16:01:47.384Z,52.10
2023-04-08T16:04:18.086Z,52.46
2023-04-08T16:06:49.267Z,53.03
2023-04-08T16:09:23.967Z,53.45
2023-04-08T16:11:54.058Z,53.40
2023-04-08T16:14:24.192Z,53.71
2023-04-08T16:16:54.585Z,53.99
2023-04-08T16:19:23.876Z,53.88
2023-04-08T16:21:53.814Z,54.66
2023-04-08T16:24:23.762Z,54.77
2023-04-08T16:26:53.534Z,55.04
2023-04-08T16:29:23.455Z,55.35
2023-04-08T16:31:54.470Z,55.27
2023-04-08T16:34:26.046Z,55.18
2023-04-08T16:36:56.989Z,55.28
2023-04-08T16:39:26.991Z,55.15
2023-04-08T16:41:57.460Z,55.52
2023-04-08T16:44:26.475Z,56.25
2023-04-08T16:46:56.765Z,56.72
2023-04-08T16:49:26.086Z,57.16
2023-04-08T16:51:55.529Z,56.99
2023-04-08T16:54:25.078Z,57.08
2023-04-08T16:57:00.166Z,57.46
2023-04-08T16:59:29.833Z,57.65
2023-04-08T17:01:59.887Z,58.03
2023-04-08T17:04:29.193Z,57.64
2023-04-08T17:06:58.589Z,57.85
2023-04-08T17:09:29.309Z,57.84
2023-04-08T17:11:58.876Z,58.20
2023-04-08T17:14:28.906Z,58.17
2023-04-08T17:16:58.458Z,58.37
2023-04-08T17:19:27.886Z,58.85
2023-04-08T17:21:57.246Z,58.77
2023-04-08T17:24:29.028Z,58.65
2023-04-08T17:27:00.789Z,58.82
2023-04-08T17:29:31.500Z,59.06
2023-04-08T17:32:03.021Z,58.74
2023-04-08T17:34:33.451Z,59.13
2023-04-08T17:37:02.457Z,58.78
2023-04-08T17:39:32.249Z,59.64
2023-04-08T17:42:02.914Z,59.41
2023-04-08T17:44:32.493Z,59.27
2023-04-08T17:47:01.544Z,60.05
2023-04-08T17:49:31.290Z,59.95
2023-04-08T17:52:01.073Z,59.95
2023-04-08T17:54:33.643Z,60.40
2023-04-08T17:57:03.850Z,60.31
2023-04-08T17:59:34.369Z,60.55
2023-04-08T18:02:03.823Z,60.58
2023-04-08T18:04:33.263Z,61.03
2023-04-08T18:07:05.938Z,61.43
2023-04-08T18:09:36.745Z,62.00
2023-04-08T18:12:07.106Z,62.01
2023-04-08T18:14:37.494Z,62.22
2023-04-08T18:17:06.951Z,62.33
2023-04-08T18:19:37.942Z,62.60
2023-04-08T18:22:07.963Z,62.76
2023-04-08T18:24:37.958Z,63.69
2023-04-08T18:27:09.153Z,63.46
2023-04-08T18:29:38.661Z,63.93
2023-04-08T18:32:08.461Z,65.58
2023-04-08T18:34:40.198Z,64.99
2023-04-08T18:37:11.587Z,65.28
2023-04-08T18:39:42.026Z,65.80
2023-04-08T18:42:11.631Z,65.06
2023-04-08T18:44:41.580Z,65.61
2023-04-08T18:47:11.696Z,65.79
2023-04-08T18:49:41.669Z,65.42
2023-04-08T18:52:11.227Z,66.53
2023-04-08T18:54:40.749Z,66.69
2023-04-08T18:57:11.130Z,67.04
2023-04-08T18:59:41.240Z,65.99
2023-04-08T19:02:12.056Z,66.05
2023-04-08T19:04:44.085Z,67.30
2023-04-08T19:07:13.372Z,67.33
2023-04-08T19:09:42.799Z,67.88
2023-04-08T19:12:13.406Z,68.67
2023-04-08T19:14:43.863Z,66.67
2023-04-08T19:17:13.487Z,67.34
2023-04-08T19:19:47.211Z,67.55
2023-04-08T19:22:17.394Z,67.26
2023-04-08T19:24:48.129Z,67.29
2023-04-08T19:27:17.400Z,68.20
2023-04-08T19:29:47.654Z,69.00
2023-04-08T19:32:17.184Z,68.80
2023-04-08T19:34:47.340Z,68.67
2023-04-08T19:37:16.661Z,69.00
2023-04-08T19:39:46.210Z,68.92
2023-04-08T19:42:15.769Z,69.09
2023-04-08T19:44:47.897Z,69.12
2023-04-08T19:47:18.218Z,69.54
2023-04-08T19:49:48.404Z,69.44
2023-04-08T19:52:21.040Z,69.62
2023-04-08T19:54:51.917Z,69.40
2023-04-08T19:57:21.661Z,69.09
2023-04-08T19:59:55.701Z,68.83
2023-04-08T20:02:25.955Z,68.22
2023-04-08T20:04:57.830Z,67.89
2023-04-08T20:07:28.070Z,67.83
2023-04-08T20:09:57.619Z,68.29
2023-04-08T20:12:27.718Z,67.73
2023-04-08T20:14:57.392Z,67.63
2023-04-08T20:17:27.858Z,67.73
2023-04-08T20:19:59.716Z,67.62
2023-04-08T20:22:29.245Z,67.91
2023-04-08T20:25:02.463Z,67.95
2023-04-08T20:27:32.125Z,68.21
2023-04-08T20:30:01.707Z,68.20
2023-04-08T20:32:31.381Z,67.85
2023-04-08T20:35:01.480Z,67.96
2023-04-08T20:37:31.246Z,67.96
2023-04-08T20:40:02.849Z,69.03
2023-04-08T20:42:32.548Z,68.39
2023-04-08T20:45:02.210Z,68.52
2023-04-08T20:47:32.298Z,69.27
2023-04-08T20:50:02.953Z,68.61
2023-04-08T20:52:34.795Z,68.52
2023-04-08T20:55:05.976Z,68.43
2023-04-08T20:57:35.877Z,69.36
2023-04-08T21:00:07.062Z,69.46
2023-04-08T21:02:37.287Z,69.06
2023-04-08T21:05:07.650Z,69.17
2023-04-08T21:07:38.964Z,70.30
2023-04-08T21:10:10.275Z,69.97
2023-04-08T21:12:40.154Z,69.78
2023-04-08T21:15:11.064Z,70.13
2023-04-08T21:17:44.377Z,70.98
2023-04-08T21:20:13.976Z,70.88
2023-04-08T21:22:44.621Z,71.27
2023-04-08T21:25:14.568Z,71.47
2023-04-08T21:27:44.611Z,72.00
2023-04-08T21:30:17.311Z,71.49
2023-04-08T21:32:47.501Z,71.69
2023-04-08T21:35:16.672Z,71.79
2023-04-08T21:37:47.055Z,71.95
2023-04-08T21:40:17.894Z,72.34
2023-04-08T21:42:47.295Z,72.28
2023-04-08T21:45:17.415Z,72.97
2023-04-08T21:47:47.773Z,72.72
2023-04-08T21:50:18.408Z,73.32
2023-04-08T21:52:47.766Z,73.32
2023-04-08T21:55:17.288Z,73.82
2023-04-08T21:57:47.300Z,73.64
2023-04-08T22:00:17.394Z,72.91
2023-04-08T22:02:48.466Z,73.79
2023-04-08T22:05:18.024Z,73.39
2023-04-08T22:07:47.321Z,73.46
2023-04-08T22:10:17.609Z,73.12
2023-04-08T22:12:48.157Z,73.15
2023-04-08T22:15:18.583Z,72.39
2023-04-08T22:17:49.009Z,72.53
2023-04-08T22:20:19.294Z,72.56
2023-04-08T22:22:49.042Z,72.35
2023-04-08T22:25:21.224Z,72.73
2023-04-08T22:27:52.173Z,73.56
2023-04-08T22:30:21.817Z,73.12
2023-04-08T22:32:51.185Z,73.31
2023-04-08T22:35:20.831Z,73.78
2023-04-08T22:37:50.676Z,73.78
2023-04-08T22:40:21.406Z,73.84
2023-04-08T22:42:50.939Z,73.44
2023-04-08T22:45:21.689Z,73.44
2023-04-08T22:47:54.119Z,73.44
2023-04-08T22:50:24.450Z,74.07
2023-04-08T22:52:54.892Z,75.44
2023-04-08T22:55:24.896Z,76.07
2023-04-08T22:57:54.544Z,75.76
2023-04-08T23:00:24.985Z,76.77
2023-04-08T23:02:55.203Z,76.26
2023-04-08T23:05:25.089Z,75.95
2023-04-08T23:07:54.794Z,75.63
2023-04-08T23:10:26.714Z,76.06
2023-04-08T23:12:56.971Z,76.04
2023-04-08T23:15:27.090Z,76.44
2023-04-08T23:17:56.887Z,76.54
2023-04-08T23:20:26.459Z,76.48
2023-04-08T23:22:55.557Z,76.74
2023-04-08T23:25:26.432Z,76.91
2023-04-08T23:27:55.988Z,77.60
2023-04-08T23:30:26.786Z,77.37
2023-04-08T23:32:56.322Z,77.45
2023-04-08T23:35:26.282Z,77.39
2023-04-08T23:37:56.472Z,77.27
2023-04-08T23:40:26.426Z,77.04
2023-04-08T23:42:55.985Z,77.37
2023-04-08T23:45:26.004Z,77.07
2023-04-08T23:47:55.366Z,77.24
2023-04-08T23:50:25.038Z,77.17
2023-04-08T23:52:54.240Z,77.33
2023-04-08T23:55:24.005Z,77.12
2023-04-08T23:58:00.905Z,77.21
